Time;durP1;ratioP1;P1;durP2;ratioP2;P2;SDS_P1;SDS_P2;PMS_P1;PMS_P2;Temp;Humidity;BMP_temperature;BMP_pressure;BME280_temperature;BME280_humidity;BME280_pressure;Samples;Min_cycle;Max_cycle;Signal;HPM_P1;HPM_P2
2022/03/21 00:00:56;;;;;;;7.83;5.03;;;4.80;74.90;;;;;;5073417;28;20704;-79
2022/03/21 00:03:24;;;;;;;8.77;5.23;;;4.80;74.90;;;;;;5060929;28;20614;-80
2022/03/21 00:05:51;;;;;;;8.40;5.37;;;4.80;75.00;;;;;;5073904;28;20226;-80
2022/03/21 00:08:18;;;;;;;7.90;5.43;;;4.80;75.10;;;;;;5083951;28;20244;-80
2022/03/21 00:10:45;;;;;;;9.40;5.47;;;4.80;75.40;;;;;;5073476;28;20200;-81
2022/03/21 00:13:15;;;;;;;8.53;5.30;;;4.70;75.20;;;;;;5083855;28;20216;-80
2022/03/21 00:15:48;;;;;;;7.23;4.87;;;4.70;75.40;;;;;;5083555;28;20170;-80
2022/03/21 00:18:14;;;;;;;6.70;5.10;;;4.60;76.10;;;;;;5073109;28;20260;-81
2022/03/21 00:20:41;;;;;;;9.13;5.37;;;4.60;75.70;;;;;;5083711;28;20204;-80
2022/03/21 00:23:07;;;;;;;8.40;5.80;;;4.60;76.00;;;;;;5069586;28;20705;-79
2022/03/21 00:25:33;;;;;;;8.17;5.23;;;4.70;76.00;;;;;;5082751;28;20292;-80
2022/03/21 00:27:59;;;;;;;7.77;5.43;;;4.60;76.20;;;;;;5080829;28;20215;-80
2022/03/21 00:30:26;;;;;;;6.07;4.67;;;4.60;76.60;;;;;;5071047;28;20207;-80
2022/03/21 00:32:51;;;;;;;8.20;5.13;;;4.50;77.60;;;;;;5081581;28;20279;-79
2022/03/21 00:35:17;;;;;;;8.53;5.10;;;4.40;77.20;;;;;;5070573;28;20212;-80
2022/03/21 00:37:44;;;;;;;9.67;6.00;;;4.40;77.70;;;;;;5082195;28;20216;-80
2022/03/21 00:40:11;;;;;;;8.50;5.43;;;4.30;77.80;;;;;;5080076;28;20177;-79
2022/03/21 00:42:38;;;;;;;9.47;5.73;;;4.30;78.30;;;;;;5080105;28;20177;-79
2022/03/21 00:45:10;;;;;;;14.43;6.90;;;4.20;79.00;;;;;;5071452;28;20537;-81
2022/03/21 00:47:36;;;;;;;9.00;6.07;;;4.20;78.90;;;;;;5081359;28;20624;-80
2022/03/21 00:50:03;;;;;;;9.60;5.60;;;4.10;79.20;;;;;;5082298;28;20181;-80
2022/03/21 00:52:30;;;;;;;8.30;5.27;;;4.10;79.10;;;;;;5084358;28;20186;-80
2022/03/21 00:54:56;;;;;;;7.83;5.17;;;4.20;78.80;;;;;;5083076;28;20187;-80
2022/03/21 00:57:21;;;;;;;7.33;5.03;;;4.10;79.20;;;;;;5082044;28;20185;-80
2022/03/21 00:59:47;;;;;;;8.63;5.60;;;4.10;79.50;;;;;;5083345;28;20181;-81
2022/03/21 01:02:12;;;;;;;8.90;5.60;;;4.10;80.10;;;;;;5072444;28;20180;-79
2022/03/21 01:04:39;;;;;;;9.00;6.20;;;4.00;80.00;;;;;;5082567;28;20201;-80
2022/03/21 01:07:05;;;;;;;9.37;6.50;;;4.10;80.10;;;;;;5071799;28;20253;-81
2022/03/21 01:09:32;;;;;;;10.57;6.87;;;4.10;80.00;;;;;;5072318;28;20212;-80
2022/03/21 01:12:03;;;;;;;10.03;6.20;;;4.00;80.20;;;;;;5081736;28;20173;-80
2022/03/21 01:14:30;;;;;;;11.17;6.97;;;4.00;80.80;;;;;;5082669;28;20737;-80
2022/03/21 01:16:56;;;;;;;10.60;6.03;;;4.00;81.30;;;;;;5083657;28;20257;-80
2022/03/21 01:19:21;;;;;;;10.10;6.17;;;3.90;81.50;;;;;;5082775;28;20268;-79
2022/03/21 01:21:47;;;;;;;8.53;6.20;;;3.80;82.20;;;;;;5071105;28;20274;-79
2022/03/21 01:24:13;;;;;;;10.60;6.30;;;3.70;82.90;;;;;;5080756;28;20207;-79
2022/03/21 01:26:38;;;;;;;8.53;6.17;;;3.70;83.00;;;;;;5080649;28;20192;-81
2022/03/21 01:29:04;;;;;;;8.43;6.03;;;3.70;83.70;;;;;;5082766;28;20300;-81
2022/03/21 01:31:29;;;;;;;9.20;6.50;;;3.60;84.30;;;;;;5071136;28;20189;-80
2022/03/21 01:33:55;;;;;;;8.53;5.90;;;3.50;85.10;;;;;;5082868;28;20197;-79
2022/03/21 01:36:22;;;;;;;8.27;6.17;;;3.50;85.40;;;;;;5071487;28;20633;-80
2022/03/21 01:38:48;;;;;;;9.07;6.93;;;3.50;86.10;;;;;;5082396;28;20192;-80
2022/03/21 01:41:13;;;;;;;9.20;6.33;;;3.50;86.80;;;;;;5081283;28;20265;-78
2022/03/21 01:44:03;;;;;;;10.00;6.33;;;3.40;87.20;;;;;;5070968;28;20213;-81
2022/03/21 01:46:29;;;;;;;9.70;6.50;;;3.40;87.90;;;;;;5082615;28;20591;-81
2022/03/21 01:48:55;;;;;;;10.07;6.90;;;3.50;88.10;;;;;;5071714;28;20205;-80
2022/03/21 01:51:21;;;;;;;11.33;6.23;;;3.40;88.20;;;;;;5081740;28;20185;-82
2022/03/21 01:56:32;;;;;;;9.37;6.30;;;3.40;89.00;;;;;;5082770;28;20190;-80
2022/03/21 01:58:57;;;;;;;9.60;6.50;;;3.30;89.50;;;;;;5071434;28;20307;-80
2022/03/21 02:01:23;;;;;;;10.47;6.40;;;3.40;89.60;;;;;;5071622;28;21240;-80
2022/03/21 02:03:49;;;;;;;9.30;6.40;;;3.40;89.80;;;;;;5082626;28;20200;-79
2022/03/21 02:06:16;;;;;;;9.87;6.23;;;3.40;89.90;;;;;;5082270;28;20190;-79
2022/03/21 02:08:42;;;;;;;8.93;6.17;;;3.40;90.00;;;;;;5081343;28;20201;-80
2022/03/21 02:11:08;;;;;;;9.90;6.60;;;3.50;90.10;;;;;;5071178;28;20181;-80
2022/03/21 02:13:34;;;;;;;10.27;6.33;;;3.50;93.70;;;;;;5079040;28;20204;-81
2022/03/21 02:16:00;;;;;;;9.87;6.97;;;3.40;90.40;;;;;;5078443;28;20207;-80
2022/03/21 02:18:28;;;;;;;11.30;6.97;;;3.40;90.50;;;;;;5080383;28;20194;-80
2022/03/21 02:20:56;;;;;;;10.63;6.20;;;3.40;90.80;;;;;;5063112;28;21144;-79
2022/03/21 02:23:35;;;;;;;11.03;6.13;;;3.40;91.20;;;;;;5080744;28;20217;-80
2022/03/21 02:26:02;;;;;;;9.40;6.23;;;3.30;91.40;;;;;;5079213;28;20299;-80
2022/03/21 02:28:29;;;;;;;10.70;5.90;;;3.20;91.70;;;;;;5078381;28;20257;-78
2022/03/21 02:30:56;;;;;;;11.37;6.67;;;3.20;92.10;;;;;;5070185;28;20214;-81
2022/03/21 02:33:23;;;;;;;8.73;6.13;;;3.20;92.40;;;;;;5081097;28;20213;-78
2022/03/21 02:35:50;;;;;;;10.57;6.60;;;3.10;92.60;;;;;;5071389;28;20177;-80
2022/03/21 02:38:17;;;;;;;10.70;6.63;;;3.00;93.10;;;;;;5078398;28;20253;-80
2022/03/21 02:40:43;;;;;;;11.60;7.10;;;3.00;93.40;;;;;;5082362;28;20203;-80
2022/03/21 02:43:08;;;;;;;12.07;7.20;;;3.00;94.10;;;;;;5070309;28;21027;-79
2022/03/21 02:45:34;;;;;;;11.13;7.30;;;2.90;94.20;;;;;;5081232;28;20197;-80
2022/03/21 02:48:00;;;;;;;10.47;6.83;;;2.90;94.70;;;;;;5080799;28;20208;-80
2022/03/21 02:50:45;;;;;;;9.43;7.17;;;2.90;95.20;;;;;;5079483;28;20670;-79
2022/03/21 02:53:11;;;;;;;10.80;6.60;;;2.80;95.80;;;;;;5083523;28;20209;-79
2022/03/21 02:55:40;;;;;;;11.70;6.87;;;2.80;96.40;;;;;;5076626;28;20581;-82
2022/03/21 02:58:05;;;;;;;11.73;6.50;;;2.70;97.30;;;;;;5086022;28;20199;-81
2022/03/21 03:00:31;;;;;;;10.67;7.07;;;2.60;98.10;;;;;;5085552;28;20188;-81
2022/03/21 03:02:56;;;;;;;9.83;6.40;;;2.60;99.40;;;;;;5084767;28;20547;-80
2022/03/21 03:05:22;;;;;;;9.77;7.47;;;2.60;99.90;;;;;;5084211;28;20246;-79
2022/03/21 03:07:48;;;;;;;9.00;6.33;;;2.50;99.90;;;;;;5085970;28;20608;-80
2022/03/21 03:10:13;;;;;;;9.33;6.83;;;2.40;99.90;;;;;;5076059;28;20188;-80
2022/03/21 03:12:39;;;;;;;10.30;7.13;;;2.40;99.90;;;;;;5074909;28;20188;-79
2022/03/21 03:15:05;;;;;;;10.17;6.93;;;2.40;99.90;;;;;;5075433;28;20189;-80
2022/03/21 03:17:30;;;;;;;11.57;7.30;;;2.40;99.90;;;;;;5076278;28;20626;-79
2022/03/21 03:19:56;;;;;;;11.10;7.37;;;2.30;99.90;;;;;;5085688;28;20195;-80
2022/03/21 03:22:24;;;;;;;11.40;6.70;;;2.20;99.90;;;;;;5073194;28;20930;-78
2022/03/21 03:24:51;;;;;;;11.60;7.73;;;2.30;99.90;;;;;;5085418;28;20224;-78
2022/03/21 03:27:16;;;;;;;12.33;7.63;;;2.40;99.90;;;;;;5074007;28;20193;-82
2022/03/21 03:29:42;;;;;;;10.40;6.87;;;2.50;99.90;;;;;;5073361;28;20606;-78
2022/03/21 03:32:08;;;;;;;10.30;7.27;;;2.50;99.90;;;;;;5081913;28;20203;-80
2022/03/21 03:34:35;;;;;;;9.73;7.20;;;2.50;99.90;;;;;;5072600;28;20196;-80
2022/03/21 03:37:01;;;;;;;10.63;7.40;;;2.50;99.90;;;;;;5083078;28;20230;-80
2022/03/21 03:39:27;;;;;;;10.70;6.57;;;2.40;99.90;;;;;;5074223;28;20855;-80
2022/03/21 03:41:53;;;;;;;10.70;7.00;;;2.50;99.90;;;;;;5087702;28;20189;-80
2022/03/21 03:44:18;;;;;;;11.47;7.17;;;2.40;99.90;;;;;;5075106;28;20299;-80
2022/03/21 03:46:44;;;;;;;11.60;7.40;;;2.40;99.90;;;;;;5076465;28;20190;-80
2022/03/21 03:49:10;;;;;;;13.53;7.63;;;2.40;99.90;;;;;;5087605;28;20626;-79
2022/03/21 03:51:36;;;;;;;11.50;6.87;;;2.50;99.90;;;;;;5087600;28;20264;-80
2022/03/21 03:54:01;;;;;;;11.63;7.40;;;2.40;99.90;;;;;;5085754;28;20231;-79
2022/03/21 03:56:27;;;;;;;11.13;7.83;;;2.50;99.90;;;;;;5087446;28;20200;-79
2022/03/21 03:58:52;;;;;;;11.63;7.30;;;2.40;99.90;;;;;;5076176;28;20281;-80
2022/03/21 04:01:18;;;;;;;11.47;7.47;;;2.40;99.90;;;;;;5073713;28;20193;-80
2022/03/21 04:03:46;;;;;;;10.17;7.57;;;2.50;99.90;;;;;;5083583;28;20205;-80
2022/03/21 04:06:18;;;;;;;10.93;7.97;;;2.30;99.90;;;;;;5081475;28;20186;-81
2022/03/21 04:08:48;;;;;;;10.67;7.03;;;2.40;99.90;;;;;;5073877;28;20201;-81
2022/03/21 04:11:14;;;;;;;10.83;7.57;;;2.40;99.90;;;;;;5075747;28;20189;-80
2022/03/21 04:13:40;;;;;;;11.03;7.30;;;2.40;99.90;;;;;;5085511;28;20212;-81
2022/03/21 04:16:07;;;;;;;11.27;7.40;;;2.30;99.90;;;;;;5073686;28;20710;-80
2022/03/21 04:18:33;;;;;;;12.20;7.57;;;2.30;99.90;;;;;;5084230;28;20552;-80
2022/03/21 04:20:59;;;;;;;11.10;7.77;;;2.30;99.90;;;;;;5074908;28;20211;-79
2022/03/21 04:23:25;;;;;;;10.33;7.17;;;2.20;99.90;;;;;;5070381;28;20630;-78
2022/03/21 04:25:50;;;;;;;10.97;7.37;;;2.20;99.90;;;;;;5081028;28;20208;-77
2022/03/21 04:28:16;;;;;;;12.00;8.30;;;2.20;99.90;;;;;;5080158;28;20263;-78
2022/03/21 04:30:42;;;;;;;11.10;7.30;;;2.10;99.90;;;;;;5070104;28;20198;-82
2022/03/21 04:33:09;;;;;;;10.03;7.30;;;2.10;99.90;;;;;;5080082;28;20201;-78
2022/03/21 04:35:36;;;;;;;10.83;7.47;;;2.10;99.90;;;;;;5081349;28;20185;-77
2022/03/21 04:38:03;;;;;;;11.33;8.03;;;2.10;99.90;;;;;;5068820;28;20190;-77
2022/03/21 04:40:28;;;;;;;13.80;7.50;;;2.10;99.90;;;;;;5080483;28;20192;-78
2022/03/21 04:42:54;;;;;;;12.57;7.87;;;2.10;99.90;;;;;;5068876;28;20213;-79
2022/03/21 04:45:20;;;;;;;11.00;7.27;;;2.10;99.90;;;;;;5068721;28;20185;-78
2022/03/21 04:47:46;;;;;;;11.23;7.50;;;2.00;99.90;;;;;;5079715;28;20207;-80
2022/03/21 04:50:12;;;;;;;13.33;7.40;;;2.00;99.90;;;;;;5085729;28;20185;-80
2022/03/21 04:52:39;;;;;;;12.87;7.67;;;1.90;99.90;;;;;;5073699;28;20196;-79
2022/03/21 04:55:08;;;;;;;12.33;7.60;;;1.90;99.90;;;;;;5083049;28;20196;-83
2022/03/21 04:57:35;;;;;;;11.43;7.43;;;1.70;99.90;;;;;;5073402;28;20189;-79
2022/03/21 05:00:03;;;;;;;12.20;8.00;;;1.70;99.90;;;;;;5085458;28;20193;-81
2022/03/21 05:02:28;;;;;;;11.83;8.23;;;1.50;99.90;;;;;;5071482;28;20193;-82
2022/03/21 05:04:54;;;;;;;11.03;7.70;;;1.50;99.90;;;;;;5070617;28;20193;-78
2022/03/21 05:07:20;;;;;;;12.97;8.43;;;1.40;99.90;;;;;;5069817;28;20189;-79
2022/03/21 05:09:46;;;;;;;11.60;8.03;;;1.20;99.90;;;;;;5078223;28;20296;-81
2022/03/21 05:12:12;;;;;;;12.07;8.67;;;1.20;99.90;;;;;;5068772;28;20181;-78
2022/03/21 05:14:38;;;;;;;11.93;8.33;;;1.20;99.90;;;;;;5067575;28;20216;-79
2022/03/21 05:17:05;;;;;;;14.37;8.13;;;1.10;99.90;;;;;;5079135;28;20231;-80
2022/03/21 05:19:34;;;;;;;13.00;8.57;;;1.00;99.90;;;;;;5077091;28;20646;-78
2022/03/21 05:22:04;;;;;;;13.10;8.33;;;0.90;99.90;;;;;;5067969;28;20185;-78
2022/03/21 05:32:41;;;;;;;11.97;7.97;;;0.80;99.90;;;;;;5079581;28;20270;-78
2022/03/21 05:37:51;;;;;;;13.37;8.43;;;0.60;99.90;;;;;;5076102;28;20220;-79
2022/03/21 05:40:34;;;;;;;15.07;8.70;;;0.50;99.90;;;;;;5067308;28;20209;-80
2022/03/21 05:43:00;;;;;;;13.70;8.90;;;0.60;99.90;;;;;;5068084;28;20330;-79
2022/03/21 05:45:28;;;;;;;14.37;8.63;;;0.50;99.90;;;;;;5067572;28;20181;-79
2022/03/21 05:50:38;;;;;;;11.30;8.37;;;0.50;99.90;;;;;;5078045;28;20188;-80
2022/03/21 05:53:06;;;;;;;12.30;8.43;;;0.60;99.90;;;;;;5066830;28;20903;-79
2022/03/21 05:55:32;;;;;;;11.83;7.93;;;0.70;99.90;;;;;;5077279;28;20184;-78
2022/03/21 05:57:58;;;;;;;14.17;8.07;;;0.90;99.90;;;;;;5079480;28;20185;-82
2022/03/21 06:00:27;;;;;;;15.43;8.63;;;0.90;99.90;;;;;;5078441;28;20568;-80
2022/03/21 06:02:53;;;;;;;11.93;8.33;;;1.00;99.90;;;;;;5078753;28;20611;-79
2022/03/21 06:05:21;;;;;;;13.40;9.10;;;1.00;99.90;;;;;;5067586;28;20551;-79
2022/03/21 06:07:48;;;;;;;12.93;8.77;;;0.90;99.90;;;;;;5067608;28;20177;-80
2022/03/21 06:10:14;;;;;;;13.93;9.40;;;0.80;99.90;;;;;;5072446;28;20181;-78
2022/03/21 06:12:40;;;;;;;12.80;8.80;;;0.80;99.90;;;;;;5082553;28;20256;-80
2022/03/21 06:15:07;;;;;;;14.83;8.53;;;0.90;99.90;;;;;;5085219;28;20181;-82
2022/03/21 06:17:40;;;;;;;13.67;8.80;;;1.00;99.90;;;;;;5075501;28;20494;-77
2022/03/21 06:20:08;;;;;;;15.37;8.63;;;1.10;99.90;;;;;;5087404;28;20910;-80
2022/03/21 06:22:34;;;;;;;12.03;8.27;;;1.20;99.90;;;;;;5082507;28;20788;-80
2022/03/21 06:24:59;;;;;;;13.17;8.43;;;1.40;99.90;;;;;;5091519;28;20201;-80
2022/03/21 06:27:25;;;;;;;11.50;7.90;;;1.70;99.90;;;;;;5080698;28;20189;-79
2022/03/21 06:29:52;;;;;;;12.67;8.17;;;1.80;99.90;;;;;;5082843;28;20255;-78
2022/03/21 06:32:18;;;;;;;11.00;7.50;;;2.00;99.90;;;;;;5083728;28;20181;-77
2022/03/21 06:34:43;;;;;;;15.57;7.93;;;2.30;99.90;;;;;;5081879;28;20196;-78
2022/03/21 06:37:10;;;;;;;11.77;7.83;;;2.50;99.90;;;;;;5071141;28;20590;-80
2022/03/21 06:39:35;;;;;;;11.87;8.17;;;2.60;99.90;;;;;;5072359;28;20277;-79
2022/03/21 06:42:01;;;;;;;13.63;8.33;;;2.70;99.90;;;;;;5071622;28;20634;-81
2022/03/21 06:44:27;;;;;;;10.53;7.20;;;2.90;99.90;;;;;;5076774;28;20212;-78
2022/03/21 06:46:53;;;;;;;9.93;7.23;;;3.00;99.90;;;;;;5081575;28;20663;-81
2022/03/21 06:49:20;;;;;;;10.67;7.57;;;3.10;99.90;;;;;;5081048;28;20201;-80
2022/03/21 06:51:46;;;;;;;12.20;7.73;;;3.10;99.90;;;;;;5082780;28;20192;-81
2022/03/21 06:54:14;;;;;;;10.83;7.70;;;3.20;99.90;;;;;;5069159;28;20192;-80
2022/03/21 06:56:40;;;;;;;11.17;7.77;;;3.40;99.90;;;;;;5082989;28;20231;-80
2022/03/21 06:59:06;;;;;;;12.07;7.97;;;3.40;99.90;;;;;;5081678;28;20176;-81
2022/03/21 07:01:35;;;;;;;11.40;7.80;;;3.50;99.90;;;;;;5071538;28;20335;-81
2022/03/21 07:04:01;;;;;;;10.93;8.27;;;3.50;99.90;;;;;;5070313;28;20208;-82
2022/03/21 07:06:26;;;;;;;12.53;8.07;;;3.50;99.90;;;;;;5078055;28;20189;-82
2022/03/21 07:08:52;;;;;;;10.33;7.40;;;3.60;99.90;;;;;;5080608;28;20783;-80
2022/03/21 07:11:20;;;;;;;11.40;7.60;;;3.70;99.90;;;;;;5081436;28;20618;-81
2022/03/21 07:13:45;;;;;;;14.17;8.10;;;3.70;99.90;;;;;;5070762;28;20204;-81
2022/03/21 07:16:16;;;;;;;11.53;8.20;;;3.80;99.90;;;;;;5080941;28;20162;-83
2022/03/21 07:18:42;;;;;;;10.97;7.87;;;4.00;99.90;;;;;;5085378;28;20224;-83
2022/03/21 07:21:08;;;;;;;11.87;7.50;;;4.10;99.90;;;;;;5069024;28;20186;-80
2022/03/21 07:23:34;;;;;;;10.93;7.57;;;4.20;99.90;;;;;;5080207;28;20207;-80
2022/03/21 07:26:00;;;;;;;11.87;7.70;;;4.20;99.90;;;;;;5080771;28;20189;-79
2022/03/21 07:28:26;;;;;;;10.70;7.53;;;4.20;99.90;;;;;;5072628;28;20208;-81
2022/03/21 07:30:52;;;;;;;11.70;7.73;;;4.40;99.90;;;;;;5074789;28;20178;-81
2022/03/21 07:33:18;;;;;;;11.67;7.97;;;4.40;99.90;;;;;;5065466;28;20217;-82
2022/03/21 07:35:44;;;;;;;11.40;7.97;;;4.50;99.90;;;;;;5079058;28;20226;-81
2022/03/21 07:38:10;;;;;;;11.60;7.97;;;4.60;99.90;;;;;;5069022;28;20253;-82
2022/03/21 07:40:36;;;;;;;10.17;6.90;;;4.60;99.90;;;;;;5071150;28;20462;-79
2022/03/21 07:43:02;;;;;;;10.33;7.17;;;4.80;99.90;;;;;;5068864;28;20309;-80
2022/03/21 07:48:12;;;;;;;12.83;7.60;;;5.10;99.90;;;;;;5082518;28;20254;-81
2022/03/21 07:50:38;;;;;;;11.93;8.23;;;5.20;99.90;;;;;;5081736;28;20452;-81
2022/03/21 07:53:04;;;;;;;12.27;8.10;;;5.20;99.90;;;;;;5070268;28;20205;-81
2022/03/21 07:55:33;;;;;;;11.73;7.17;;;5.40;99.90;;;;;;5081375;28;20193;-80
2022/03/21 07:58:00;;;;;;;11.03;7.80;;;5.40;99.90;;;;;;5071403;28;20266;-81
2022/03/21 08:00:27;;;;;;;11.40;8.30;;;5.50;99.90;;;;;;5083780;28;20184;-79
2022/03/21 08:02:53;;;;;;;10.80;7.50;;;5.60;99.90;;;;;;5068135;28;20205;-80
2022/03/21 08:05:19;;;;;;;10.60;7.57;;;5.70;99.90;;;;;;5067944;28;20189;-80
2022/03/21 08:07:45;;;;;;;11.30;7.60;;;5.80;99.90;;;;;;5076506;28;20244;-78
2022/03/21 08:10:11;;;;;;;12.43;7.87;;;5.80;99.90;;;;;;5065800;28;20776;-79
2022/03/21 08:12:42;;;;;;;11.20;7.77;;;5.90;99.90;;;;;;5077231;28;20185;-79
2022/03/21 08:15:11;;;;;;;11.73;7.63;;;5.90;99.90;;;;;;5069317;28;20227;-80
2022/03/21 08:17:57;;;;;;;9.57;7.27;;;6.00;99.90;;;;;;5064529;28;20229;-83
2022/03/21 08:20:25;;;;;;;12.63;8.13;;;6.40;99.90;;;;;;5068687;28;20181;-81
2022/03/21 08:22:52;;;;;;;10.90;8.10;;;6.40;99.90;;;;;;5067200;28;20504;-80
2022/03/21 08:25:20;;;;;;;10.77;7.60;;;6.30;99.90;;;;;;5065132;28;20209;-80
2022/03/21 08:27:46;;;;;;;9.77;7.67;;;6.40;99.90;;;;;;5087893;28;20193;-81
2022/03/21 08:30:15;;;;;;;10.93;8.13;;;6.30;99.90;;;;;;5066506;28;20196;-83
2022/03/21 08:32:44;;;;;;;10.40;7.53;;;6.40;99.90;;;;;;5067270;28;20186;-83
2022/03/21 08:35:10;;;;;;;10.37;7.67;;;6.50;99.90;;;;;;5067080;28;20327;-84
2022/03/21 08:37:35;;;;;;;12.23;7.90;;;6.60;99.70;;;;;;5069612;28;20280;-80
2022/03/21 08:40:02;;;;;;;11.63;7.80;;;6.70;98.90;;;;;;5084247;28;20177;-80
2022/03/21 08:42:29;;;;;;;11.50;8.10;;;6.90;99.80;;;;;;5079479;28;20189;-81
2022/03/21 08:44:55;;;;;;;12.00;7.63;;;7.10;98.80;;;;;;5082355;28;20256;-82
2022/03/21 08:47:21;;;;;;;11.50;7.63;;;7.10;98.50;;;;;;5070961;28;20176;-80
2022/03/21 08:49:46;;;;;;;10.07;7.87;;;7.20;98.80;;;;;;5079464;28;20201;-83
2022/03/21 08:52:13;;;;;;;9.43;7.13;;;7.30;97.70;;;;;;5080437;28;20264;-80
2022/03/21 08:54:39;;;;;;;10.43;7.47;;;7.40;97.60;;;;;;5081171;28;20198;-82
2022/03/21 08:57:05;;;;;;;10.43;7.50;;;7.50;97.50;;;;;;5082364;28;20177;-81
2022/03/21 08:59:32;;;;;;;12.33;8.00;;;7.80;97.50;;;;;;5082372;28;20942;-80
2022/03/21 09:01:57;;;;;;;13.13;8.13;;;7.80;96.30;;;;;;5068809;28;20300;-80
2022/03/21 09:04:23;;;;;;;10.10;7.80;;;7.70;95.70;;;;;;5071080;28;20292;-82
2022/03/21 09:06:49;;;;;;;10.83;7.77;;;7.80;96.20;;;;;;5078037;28;20569;-81
2022/03/21 09:09:18;;;;;;;11.23;7.93;;;7.90;95.50;;;;;;5076703;28;20266;-80
2022/03/21 09:11:44;;;;;;;13.60;8.70;;;7.90;96.00;;;;;;5066040;28;20182;-81
2022/03/21 09:14:10;;;;;;;10.63;7.73;;;8.20;96.40;;;;;;5064787;28;20691;-78
2022/03/21 09:16:38;;;;;;;11.87;8.40;;;8.20;94.70;;;;;;5067084;28;20227;-83
2022/03/21 09:19:04;;;;;;;9.63;7.57;;;8.30;95.00;;;;;;5065414;28;20188;-82
2022/03/21 09:21:29;;;;;;;11.00;7.77;;;8.30;95.50;;;;;;5064995;28;20185;-79
2022/03/21 09:23:55;;;;;;;13.10;8.53;;;8.50;95.20;;;;;;5068550;28;20205;-81
2022/03/21 09:26:21;;;;;;;9.40;7.33;;;8.50;94.80;;;;;;5064427;28;20674;-79
2022/03/21 09:28:48;;;;;;;10.97;8.43;;;8.70;94.80;;;;;;5064491;28;20251;-80
2022/03/21 09:31:14;;;;;;;9.10;7.40;;;8.80;94.00;;;;;;5074264;28;20664;-80
2022/03/21 09:33:41;;;;;;;11.13;8.07;;;8.90;93.90;;;;;;5072578;28;20200;-79
2022/03/21 09:36:08;;;;;;;10.90;8.03;;;9.00;93.20;;;;;;5077803;28;20192;-81
2022/03/21 09:38:34;;;;;;;11.10;7.77;;;9.20;93.30;;;;;;5072121;28;20185;-79
2022/03/21 09:41:01;;;;;;;9.50;7.67;;;9.10;92.70;;;;;;5074782;28;20296;-75
2022/03/21 09:43:29;;;;;;;10.73;7.57;;;9.10;92.40;;;;;;5067532;28;20287;-80
2022/03/21 09:45:57;;;;;;;11.23;8.33;;;9.20;92.80;;;;;;5070223;28;20185;-78
2022/03/21 09:48:25;;;;;;;10.90;8.20;;;9.40;92.20;;;;;;5067881;28;20232;-80
2022/03/21 09:50:52;;;;;;;9.97;7.83;;;9.50;92.30;;;;;;5075254;28;20188;-79
2022/03/21 09:53:18;;;;;;;10.47;7.67;;;9.60;91.30;;;;;;5073391;28;20679;-79
2022/03/21 09:55:46;;;;;;;11.03;8.53;;;9.60;90.90;;;;;;5060981;28;20184;-82
2022/03/21 09:58:12;;;;;;;11.10;7.80;;;9.70;90.90;;;;;;5076576;28;20177;-78
2022/03/21 10:00:42;;;;;;;11.53;8.07;;;9.80;90.80;;;;;;5071514;28;20735;-79
2022/03/21 10:03:08;;;;;;;11.93;8.10;;;9.80;89.80;;;;;;5071510;28;20209;-80
2022/03/21 10:05:38;;;;;;;13.93;8.37;;;9.90;91.00;;;;;;5071765;28;20192;-77
2022/03/21 10:08:23;;;;;;;11.83;8.90;;;10.00;88.70;;;;;;5069308;28;20181;-79
2022/03/21 10:10:52;;;;;;;10.90;8.07;;;10.00;89.30;;;;;;5070944;28;20538;-81
2022/03/21 10:13:19;;;;;;;11.23;8.10;;;10.10;89.30;;;;;;5068321;28;20802;-78
2022/03/21 10:15:45;;;;;;;10.43;8.10;;;10.30;90.10;;;;;;5079585;28;20195;-78
2022/03/21 10:18:12;;;;;;;10.60;8.60;;;10.40;87.80;;;;;;5068820;28;20188;-82
2022/03/21 10:20:38;;;;;;;11.40;8.97;;;10.50;88.50;;;;;;5091684;28;20687;-82
2022/03/21 10:23:16;;;;;;;12.83;8.53;;;10.60;87.50;;;;;;5093997;28;20192;-79
2022/03/21 10:25:43;;;;;;;12.13;8.77;;;10.70;87.90;;;;;;5075075;28;20201;-81
2022/03/21 10:28:08;;;;;;;9.97;7.77;;;10.70;88.40;;;;;;5074601;28;20181;-80
2022/03/21 10:30:42;;;;;;;11.43;8.37;;;10.80;85.90;;;;;;5076904;28;20522;-81
2022/03/21 10:33:08;;;;;;;11.07;8.90;;;10.90;86.20;;;;;;5073144;28;20198;-81
2022/03/21 10:35:44;;;;;;;11.60;8.73;;;11.00;85.30;;;;;;5062486;28;20186;-78
2022/03/21 10:38:10;;;;;;;11.93;8.10;;;11.00;85.00;;;;;;5073436;28;20207;-80
2022/03/21 10:40:44;;;;;;;12.60;8.87;;;11.10;85.60;;;;;;5064684;28;20679;-79
2022/03/21 10:43:15;;;;;;;10.40;8.57;;;11.10;83.30;;;;;;5073444;28;20212;-79
2022/03/21 10:45:51;;;;;;;9.37;7.70;;;11.10;83.20;;;;;;5063916;28;20222;-77
2022/03/21 10:48:30;;;;;;;12.20;9.40;;;11.30;83.00;;;;;;5064841;28;20212;-79
2022/03/21 10:50:57;;;;;;;12.23;8.37;;;11.20;81.50;;;;;;5071223;28;20659;-78
2022/03/21 10:53:25;;;;;;;12.90;8.90;;;11.30;81.10;;;;;;5073338;28;20678;-78
2022/03/21 10:56:02;;;;;;;10.60;8.83;;;11.40;81.70;;;;;;5061923;28;20205;-77
2022/03/21 10:58:36;;;;;;;10.30;8.40;;;11.60;80.60;;;;;;5064369;28;20212;-78
2022/03/21 11:01:24;;;;;;;10.40;7.90;;;11.60;79.70;;;;;;5064007;28;20180;-78
2022/03/21 11:03:51;;;;;;;12.07;8.50;;;11.70;81.30;;;;;;5064353;28;20212;-79
2022/03/21 11:06:18;;;;;;;11.30;8.60;;;11.90;77.80;;;;;;5074436;28;20211;-80
2022/03/21 11:08:47;;;;;;;11.07;8.43;;;12.00;78.10;;;;;;5075434;28;20201;-80
2022/03/21 11:11:13;;;;;;;11.80;8.83;;;12.00;77.30;;;;;;5067778;28;20280;-78
2022/03/21 11:13:38;;;;;;;9.97;8.53;;;12.10;77.90;;;;;;5067752;28;20291;-78
2022/03/21 11:16:05;;;;;;;12.00;8.47;;;12.00;76.60;;;;;;5070732;28;20185;-78
2022/03/21 11:18:31;;;;;;;9.87;8.77;;;12.10;76.50;;;;;;5067313;28;20207;-81
2022/03/21 11:20:58;;;;;;;11.17;8.33;;;12.20;74.90;;;;;;5080545;28;20189;-78
2022/03/21 11:23:25;;;;;;;10.20;8.10;;;12.20;75.10;;;;;;5074181;28;20606;-81
2022/03/21 11:25:57;;;;;;;12.00;8.27;;;12.30;76.30;;;;;;5067354;28;20201;-78
2022/03/21 11:28:39;;;;;;;11.90;8.68;;;12.40;73.70;;;;;;5077106;28;20231;-81
2022/03/21 11:31:46;;;;;;;11.53;8.83;;;12.40;74.00;;;;;;5074795;28;20590;-79
2022/03/21 11:34:15;;;;;;;19.73;9.18;;;12.50;75.70;;;;;;5062358;28;20216;-80
2022/03/21 11:36:52;;;;;;;12.77;9.10;;;12.70;75.50;;;;;;5063828;28;20234;-78
2022/03/21 11:39:18;;;;;;;10.55;8.13;;;12.70;73.40;;;;;;5059525;28;20552;-80
2022/03/21 11:42:00;;;;;;;11.27;8.85;;;12.60;73.10;;;;;;5062413;28;20185;-78
2022/03/21 11:44:26;;;;;;;10.82;8.57;;;12.70;72.00;;;;;;5071977;28;20768;-80
2022/03/21 11:46:51;;;;;;;10.90;8.50;;;12.70;73.40;;;;;;5062116;28;20189;-80
2022/03/21 11:49:20;;;;;;;10.73;8.30;;;12.80;72.80;;;;;;5064661;28;20267;-77
2022/03/21 11:51:55;;;;;;;12.55;9.48;;;12.90;71.80;;;;;;5064644;28;20227;-76
2022/03/21 11:54:37;;;;;;;11.13;8.27;;;12.80;71.90;;;;;;5063807;28;20254;-79
2022/03/21 11:57:08;;;;;;;12.68;8.82;;;12.80;71.70;;;;;;5066778;28;20178;-77
2022/03/21 11:59:38;;;;;;;10.52;8.30;;;12.90;70.90;;;;;;5062651;28;20195;-80
2022/03/21 12:02:10;;;;;;;10.95;8.23;;;13.00;71.10;;;;;;5070242;28;20185;-79
2022/03/21 12:04:37;;;;;;;11.32;8.80;;;13.10;71.00;;;;;;5070993;28;20200;-75
2022/03/21 12:07:12;;;;;;;11.30;8.80;;;13.10;71.90;;;;;;5072133;28;20546;-81
2022/03/21 12:09:48;;;;;;;10.50;8.35;;;13.30;70.60;;;;;;5068948;28;20204;-81
2022/03/21 12:12:19;;;;;;;10.68;8.40;;;13.40;71.50;;;;;;5063510;28;20205;-78
2022/03/21 12:14:45;;;;;;;11.55;8.82;;;13.50;70.70;;;;;;5073662;28;20204;-80
2022/03/21 12:17:11;;;;;;;12.25;8.38;;;13.40;69.70;;;;;;5068474;28;20300;-80
2022/03/21 12:19:48;;;;;;;12.70;9.32;;;13.40;69.40;;;;;;5077614;28;20296;-79
2022/03/21 12:22:29;;;;;;;10.10;8.50;;;13.50;70.00;;;;;;5068532;28;20217;-81
2022/03/21 12:24:55;;;;;;;11.38;8.95;;;13.50;69.40;;;;;;5079461;28;20766;-75
2022/03/21 12:27:35;;;;;;;10.85;8.40;;;13.60;69.20;;;;;;5068877;28;20559;-83
2022/03/21 12:30:20;;;;;;;12.43;8.55;;;13.60;70.50;;;;;;5079525;28;20657;-80
2022/03/21 12:33:01;;;;;;;11.73;8.23;;;13.50;67.40;;;;;;5068438;28;20757;-77
2022/03/21 12:35:34;;;;;;;11.45;8.88;;;13.50;68.30;;;;;;5071413;28;20192;-79
2022/03/21 12:38:07;;;;;;;11.55;9.32;;;13.70;67.60;;;;;;5074610;28;20185;-78
2022/03/21 12:40:35;;;;;;;12.65;9.50;;;13.80;67.80;;;;;;5084996;28;20644;-80
2022/03/21 12:43:03;;;;;;;10.45;8.32;;;13.70;67.20;;;;;;5085456;28;20215;-79
2022/03/21 12:45:29;;;;;;;11.27;8.35;;;13.80;67.90;;;;;;5074087;28;20697;-79
2022/03/21 12:48:05;;;;;;;10.57;8.50;;;13.90;68.60;;;;;;5079550;28;20227;-80
2022/03/21 12:50:32;;;;;;;10.65;8.25;;;14.00;68.00;;;;;;5070676;28;20207;-81
2022/03/21 12:53:04;;;;;;;11.90;8.70;;;14.10;65.90;;;;;;5072298;28;20206;-81
2022/03/21 12:55:30;;;;;;;11.85;8.32;;;14.00;66.50;;;;;;5074565;28;20704;-80
2022/03/21 12:58:06;;;;;;;10.90;8.45;;;14.10;66.50;;;;;;5083424;28;20189;-81
2022/03/21 13:00:38;;;;;;;11.32;9.38;;;14.20;65.60;;;;;;5082563;28;20192;-80
2022/03/21 13:03:12;;;;;;;11.85;9.50;;;14.00;66.30;;;;;;5070595;28;20573;-79
2022/03/21 13:11:24;;;;;;;11.45;8.82;;;14.30;66.70;;;;;;5079977;28;20180;-82
2022/03/21 13:13:54;;;;;;;9.48;8.18;;;14.10;64.80;;;;;;5082352;28;20212;-81